createdAt,value
2022-10-14T00:00:53.548Z,6555
2022-10-14T00:01:53.556Z,6100
2022-10-14T00:03:53.854Z,5121
2022-10-14T00:04:53.528Z,6350
2022-10-14T00:05:53.552Z,6537
2022-10-14T00:06:53.650Z,6610
2022-10-14T00:08:53.864Z,5571
2022-10-14T00:09:53.653Z,5207
2022-10-14T00:10:53.559Z,5252
2022-10-14T00:11:53.563Z,5167
2022-10-14T00:13:53.782Z,5202
2022-10-14T00:14:53.549Z,6094
2022-10-14T00:15:53.532Z,5065
2022-10-14T00:16:53.535Z,6049
2022-10-14T00:18:53.859Z,5541
2022-10-14T00:19:53.676Z,5424
2022-10-14T00:20:53.569Z,5378
2022-10-14T00:21:53.546Z,6436
2022-10-14T00:23:53.838Z,5337
2022-10-14T00:24:53.569Z,6100
2022-10-14T00:25:53.660Z,6165
2022-10-14T00:26:53.668Z,5182
2022-10-14T00:28:53.916Z,5177
2022-10-14T00:29:53.653Z,6129
2022-10-14T00:30:53.541Z,6332
2022-10-14T00:31:53.535Z,6255
2022-10-14T00:33:53.840Z,4765
2022-10-14T00:34:53.565Z,5969
2022-10-14T00:35:53.576Z,5723
2022-10-14T00:36:53.650Z,5935
2022-10-14T00:38:53.849Z,5838
2022-10-14T00:39:56.851Z,5207
2022-10-14T00:40:53.664Z,5277
2022-10-14T00:41:53.674Z,5277
2022-10-14T00:43:53.845Z,3185
2022-10-14T00:44:53.668Z,4949
2022-10-14T00:45:53.565Z,5750
2022-10-14T00:46:53.668Z,4850
2022-10-14T00:48:53.844Z,5222
2022-10-14T00:49:53.541Z,5750
2022-10-14T00:50:53.672Z,4912
2022-10-14T00:51:53.561Z,5207
2022-10-14T00:53:53.839Z,5707
2022-10-14T00:54:53.546Z,5690
2022-10-14T00:55:53.581Z,5690
2022-10-14T00:56:53.554Z,4850
2022-10-14T00:58:53.839Z,4816
2022-10-14T00:59:53.586Z,6065
2022-10-14T01:00:53.640Z,5092
2022-10-14T01:01:53.551Z,5317
2022-10-14T01:03:53.871Z,5929
2022-10-14T01:04:53.576Z,4063
2022-10-14T01:05:53.592Z,5571
2022-10-14T01:06:53.567Z,4675
2022-10-14T01:08:53.847Z,5257
2022-10-14T01:09:53.587Z,5963
2022-10-14T01:10:53.569Z,6123
2022-10-14T01:12:04.354Z,4977
2022-10-14T01:13:53.840Z,4977
2022-10-14T01:14:53.679Z,4850
2022-10-14T01:15:53.569Z,5197
2022-10-14T01:16:53.663Z,4644
2022-10-14T01:18:53.849Z,4702
2022-10-14T01:19:53.551Z,4479
2022-10-14T01:20:53.557Z,4479
2022-10-14T01:21:53.556Z,4491
2022-10-14T01:23:53.860Z,4406
2022-10-14T01:24:53.588Z,4798
2022-10-14T01:25:53.682Z,5494
2022-10-14T01:26:53.564Z,5750
2022-10-14T01:28:53.937Z,5702
2022-10-14T01:29:53.704Z,5702
2022-10-14T01:30:53.564Z,4130
2022-10-14T01:31:53.582Z,4798
2022-10-14T01:33:53.870Z,4661
2022-10-14T01:34:53.582Z,5197
2022-10-14T01:35:53.577Z,4053
2022-10-14T01:36:53.603Z,4671
2022-10-14T01:38:53.855Z,5494
2022-10-14T01:39:53.558Z,5317
2022-10-14T01:40:53.677Z,5317
2022-10-14T01:41:53.592Z,4715
2022-10-14T01:43:53.865Z,5277
2022-10-14T01:44:53.570Z,4474
2022-10-14T01:45:53.703Z,5353
2022-10-14T01:46:53.684Z,4106
2022-10-14T01:48:53.863Z,4418
2022-10-14T01:49:53.569Z,5257
2022-10-14T01:50:53.586Z,4423
2022-10-14T01:51:53.563Z,5257
2022-10-14T01:53:53.865Z,5257
2022-10-14T01:54:53.560Z,4949
2022-10-14T01:55:53.596Z,4912
2022-10-14T01:56:53.691Z,5036
2022-10-14T01:58:53.873Z,4912
2022-10-14T01:59:53.596Z,5092
2022-10-14T02:00:53.590Z,5092
2022-10-14T02:01:53.637Z,4218
2022-10-14T02:03:53.892Z,5167
2022-10-14T02:04:53.597Z,5197
2022-10-14T02:05:53.605Z,4335
2022-10-14T02:06:53.595Z,5197
2022-10-14T02:08:53.892Z,5092
2022-10-14T02:09:53.570Z,4949
2022-10-14T02:10:56.013Z,4988
2022-10-14T02:11:53.602Z,4222
2022-10-14T02:13:53.898Z,4194
2022-10-14T02:14:53.578Z,5001
2022-10-14T02:15:53.594Z,5001
2022-10-14T02:16:53.690Z,5001
2022-10-14T02:18:53.886Z,4134
2022-10-14T02:19:53.577Z,4146
2022-10-14T02:20:53.739Z,4110
2022-10-14T02:21:53.598Z,4049
2022-10-14T02:23:53.869Z,4049
2022-10-14T02:24:53.697Z,5317
2022-10-14T02:25:53.608Z,4505
2022-10-14T02:26:53.703Z,4448
2022-10-14T02:28:53.922Z,5322
2022-10-14T02:29:53.704Z,4190
2022-10-14T02:30:53.705Z,4912
2022-10-14T02:31:53.598Z,5012
2022-10-14T02:33:53.883Z,4771
2022-10-14T02:34:53.706Z,4738
2022-10-14T02:35:53.579Z,4748
2022-10-14T02:36:53.576Z,4526
2022-10-14T02:38:53.876Z,4406
2022-10-14T02:39:53.591Z,4775
2022-10-14T02:40:53.587Z,4072
2022-10-14T02:41:53.603Z,4234
2022-10-14T02:43:53.915Z,4110
2022-10-14T02:44:53.614Z,4538
2022-10-14T02:45:53.689Z,4526
2022-10-14T02:46:53.699Z,3699
2022-10-14T02:48:53.903Z,4505
2022-10-14T02:49:53.592Z,3762
2022-10-14T02:50:53.585Z,4453
2022-10-14T02:51:53.608Z,3794
2022-10-14T02:53:53.890Z,3717
2022-10-14T02:54:53.630Z,4011
2022-10-14T02:55:53.714Z,3988
2022-10-14T02:56:53.699Z,3965
2022-10-14T02:58:53.921Z,4011
2022-10-14T02:59:53.606Z,4402
2022-10-14T03:00:53.701Z,4474
2022-10-14T03:01:53.792Z,4418
2022-10-14T03:03:53.916Z,4439
2022-10-14T03:04:53.612Z,4327
2022-10-14T03:05:53.624Z,4423
2022-10-14T03:06:53.615Z,4406
2022-10-14T03:08:53.919Z,4491
2022-10-14T03:09:53.603Z,4552
2022-10-14T03:10:53.633Z,4439
2022-10-14T03:11:53.622Z,3730
2022-10-14T03:13:53.890Z,3784
2022-10-14T03:14:53.713Z,3691
2022-10-14T03:15:53.597Z,3712
2022-10-14T03:16:53.734Z,3542
2022-10-14T03:18:53.929Z,3717
2022-10-14T03:19:53.597Z,3498
2022-10-14T03:20:53.599Z,4198
2022-10-14T03:21:53.633Z,4178
2022-10-14T03:23:53.887Z,3546
2022-10-14T03:24:53.637Z,3780
2022-10-14T03:25:53.601Z,4218
2022-10-14T03:26:53.597Z,4174
2022-10-14T03:28:53.945Z,4238
2022-10-14T03:29:53.727Z,4402
2022-10-14T03:30:53.626Z,4327
2022-10-14T03:31:53.729Z,3720
2022-10-14T03:33:53.933Z,3642
2022-10-14T03:34:53.681Z,3691
2022-10-14T03:35:53.605Z,3546
2022-10-14T03:36:53.634Z,4360
2022-10-14T03:38:53.899Z,3784
2022-10-14T03:39:53.640Z,3505
2022-10-14T03:40:53.659Z,4178
2022-10-14T03:41:53.615Z,3821
2022-10-14T03:43:53.909Z,3681
2022-10-14T03:44:53.735Z,3916
2022-10-14T03:45:53.636Z,4552
2022-10-14T03:46:53.631Z,3894
2022-10-14T03:48:53.909Z,3825
2022-10-14T03:49:53.625Z,4505
2022-10-14T03:50:53.631Z,4465
2022-10-14T03:51:53.624Z,4500
2022-10-14T03:53:53.903Z,4505
2022-10-14T03:54:53.726Z,2830
2022-10-14T03:55:53.733Z,4315
2022-10-14T03:56:53.761Z,4552
2022-10-14T03:58:53.905Z,4402
2022-10-14T03:59:53.630Z,4517
2022-10-14T04:00:53.733Z,3794
2022-10-14T04:01:53.843Z,4671
2022-10-14T04:03:53.941Z,3579
2022-10-14T04:04:57.174Z,3751
2022-10-14T04:05:53.647Z,4715
2022-10-14T04:06:53.648Z,4788
2022-10-14T04:08:53.921Z,4002
2022-10-14T04:09:53.639Z,3794
2022-10-14T04:10:53.651Z,3784
2022-10-14T04:11:53.739Z,3784
2022-10-14T04:13:53.929Z,4552
2022-10-14T04:14:53.637Z,4439
2022-10-14T04:15:53.747Z,3563
2022-10-14T04:16:53.624Z,3865
2022-10-14T04:18:53.931Z,4347
2022-10-14T04:19:53.622Z,3408
2022-10-14T04:20:53.663Z,3720
2022-10-14T04:21:53.646Z,3717
2022-10-14T04:23:53.952Z,4377
2022-10-14T04:24:53.632Z,3663
2022-10-14T04:25:53.642Z,3681
2022-10-14T04:26:53.650Z,4049
2022-10-14T04:28:53.946Z,4178
2022-10-14T04:29:53.662Z,4547
2022-10-14T04:30:53.750Z,4675
2022-10-14T04:31:53.650Z,3979
2022-10-14T04:33:53.934Z,3579
2022-10-14T04:34:53.645Z,3717
2022-10-14T04:35:53.654Z,3663
2022-10-14T04:36:53.745Z,4315
2022-10-14T04:38:53.931Z,3678
2022-10-14T04:39:53.754Z,4721
2022-10-14T04:40:53.654Z,4688
2022-10-14T04:41:53.626Z,3959
2022-10-14T04:43:53.924Z,3992
2022-10-14T04:44:53.637Z,3784
2022-10-14T04:45:53.643Z,4517
2022-10-14T04:46:53.663Z,3712
2022-10-14T04:48:53.949Z,3762
2022-10-14T04:49:53.623Z,3642
2022-10-14T04:50:53.649Z,4788
2022-10-14T04:51:53.742Z,4715
2022-10-14T04:53:53.950Z,4715
2022-10-14T04:54:53.661Z,4406
2022-10-14T04:55:53.626Z,3839
2022-10-14T04:56:53.643Z,3988
2022-10-14T04:58:53.956Z,3759
2022-10-14T04:59:53.632Z,3813
2022-10-14T05:00:53.666Z,4427
2022-10-14T05:01:53.762Z,3720
2022-10-14T05:03:53.992Z,4030
2022-10-14T05:04:53.747Z,4315
2022-10-14T05:05:53.670Z,3635
2022-10-14T05:06:53.661Z,4418
2022-10-14T05:08:53.960Z,3702
2022-10-14T05:09:56.502Z,3751
2022-10-14T05:10:53.670Z,4500
2022-10-14T05:11:53.662Z,4439
2022-10-14T05:13:53.952Z,3979
2022-10-14T05:14:53.635Z,3853
2022-10-14T05:15:53.753Z,3799
2022-10-14T05:16:53.769Z,3839
2022-10-14T05:18:53.965Z,4474
2022-10-14T05:19:53.634Z,3337
2022-10-14T05:20:53.786Z,4505
2022-10-14T05:21:53.649Z,3780
2022-10-14T05:23:53.934Z,3813
2022-10-14T05:24:53.758Z,3853
2022-10-14T05:25:53.660Z,3784
2022-10-14T05:26:53.665Z,3916
2022-10-14T05:28:53.997Z,3702
2022-10-14T05:29:53.664Z,4266
2022-10-14T05:30:53.676Z,4331
2022-10-14T05:31:53.682Z,3691
2022-10-14T05:33:53.946Z,4150
2022-10-14T05:34:53.770Z,3681
2022-10-14T05:35:58.890Z,3652
2022-10-14T05:36:53.670Z,3678
2022-10-14T05:38:53.970Z,3717
2022-10-14T05:39:53.663Z,4356
2022-10-14T05:40:53.666Z,4381
2022-10-14T05:41:53.676Z,3772
2022-10-14T05:43:53.942Z,3772
2022-10-14T05:44:53.668Z,4453
2022-10-14T05:45:53.757Z,3825
2022-10-14T05:46:53.672Z,4448
2022-10-14T05:48:53.971Z,3794
2022-10-14T05:49:53.647Z,3772
2022-10-14T05:50:53.673Z,3720
2022-10-14T05:51:53.657Z,4194
2022-10-14T05:53:53.957Z,3772
2022-10-14T05:54:53.673Z,4453
2022-10-14T05:55:53.671Z,4427
2022-10-14T05:56:53.678Z,3803
2022-10-14T05:58:53.949Z,4564
2022-10-14T05:59:53.793Z,3622
2022-10-14T06:00:53.775Z,3720
2022-10-14T06:01:53.766Z,4290
2022-10-14T06:03:53.949Z,4427
2022-10-14T06:04:53.675Z,4427
2022-10-14T06:05:53.651Z,3720
2022-10-14T06:06:53.661Z,3762
2022-10-14T06:08:53.948Z,4491
2022-10-14T06:09:53.680Z,4418
2022-10-14T06:10:53.683Z,4335
2022-10-14T06:11:53.688Z,3717
2022-10-14T06:13:54.003Z,3403
2022-10-14T06:14:53.669Z,3751
2022-10-14T06:15:53.662Z,3559
2022-10-14T06:16:53.654Z,4595
2022-10-14T06:18:54.513Z,4644
2022-10-14T06:19:53.697Z,3572
2022-10-14T06:20:53.755Z,4254
2022-10-14T06:21:53.659Z,3340
2022-10-14T06:23:53.977Z,3969
2022-10-14T06:24:53.781Z,3639
2022-10-14T06:25:53.687Z,4360
2022-10-14T06:26:53.677Z,4302
2022-10-14T06:28:54.046Z,3583
2022-10-14T06:29:53.685Z,4007
2022-10-14T06:30:53.691Z,4007
2022-10-14T06:31:53.762Z,3642
2022-10-14T06:33:53.977Z,4315
2022-10-14T06:34:53.690Z,4053
2022-10-14T06:35:53.697Z,3681
2022-10-14T06:36:54.461Z,3440
2022-10-14T06:38:53.969Z,4110
2022-10-14T06:39:53.680Z,4072
2022-10-14T06:40:53.685Z,4044
2022-10-14T06:41:53.665Z,4110
2022-10-14T06:43:53.991Z,4218
2022-10-14T06:44:53.699Z,4134
2022-10-14T06:45:53.708Z,4166
2022-10-14T06:46:53.690Z,3518
2022-10-14T06:48:53.976Z,3546
2022-10-14T06:49:53.712Z,3945
2022-10-14T06:50:53.738Z,3945
2022-10-14T06:51:53.694Z,3906
2022-10-14T06:53:53.926Z,2883
2022-10-14T06:54:53.693Z,4053
2022-10-14T06:55:53.708Z,3945
2022-10-14T06:56:53.703Z,4002
2022-10-14T06:58:53.971Z,3969
2022-10-14T06:59:53.677Z,3231
2022-10-14T07:00:53.712Z,3835
2022-10-14T07:01:53.745Z,3865
2022-10-14T07:03:55.770Z,3302
2022-10-14T07:04:53.678Z,3167
2022-10-14T07:05:53.700Z,3140
2022-10-14T07:06:53.678Z,3730
2022-10-14T07:08:53.967Z,3660
2022-10-14T07:09:53.705Z,3092
2022-10-14T07:10:53.696Z,3116
2022-10-14T07:11:53.718Z,3712
2022-10-14T07:13:53.999Z,3164
2022-10-14T07:14:53.680Z,3652
2022-10-14T07:15:53.801Z,3625
2022-10-14T07:16:53.698Z,3072
2022-10-14T07:18:53.977Z,3116
2022-10-14T07:19:53.798Z,2999
2022-10-14T07:20:53.804Z,3505
2022-10-14T07:21:53.705Z,3592
2022-10-14T07:23:53.975Z,3579
2022-10-14T07:24:53.744Z,3234
2022-10-14T07:25:53.709Z,3535
2022-10-14T07:26:53.737Z,3559
2022-10-14T07:28:54.038Z,3057
2022-10-14T07:29:53.708Z,3368
2022-10-14T07:30:53.795Z,2883
2022-10-14T07:31:53.821Z,2791
2022-10-14T07:33:54.006Z,2867
2022-10-14T07:34:53.810Z,2744
2022-10-14T07:35:53.803Z,2724
2022-10-14T07:36:53.830Z,3249
2022-10-14T07:38:54.013Z,2724
2022-10-14T07:39:53.688Z,2760
2022-10-14T07:40:53.717Z,2794
2022-10-14T07:41:53.722Z,2820
2022-10-14T07:43:54.012Z,2883
2022-10-14T07:44:53.786Z,3337
2022-10-14T07:45:53.714Z,3200
2022-10-14T07:46:53.711Z,2643
2022-10-14T07:48:56.908Z,3356
2022-10-14T07:49:53.706Z,2747
2022-10-14T07:50:53.807Z,3243
2022-10-14T07:51:53.715Z,2775
2022-10-14T07:53:53.984Z,3243
2022-10-14T07:54:53.718Z,2730
2022-10-14T07:55:53.819Z,2166
2022-10-14T07:56:53.697Z,2518
2022-10-14T07:58:54.021Z,2560
2022-10-14T07:59:53.701Z,2365
2022-10-14T08:00:53.724Z,2954
2022-10-14T08:01:53.732Z,2434
2022-10-14T08:03:54.024Z,2349
2022-10-14T08:04:53.750Z,3065
2022-10-14T08:05:53.826Z,3006
2022-10-14T08:06:53.824Z,2883
2022-10-14T08:08:53.999Z,2349
2022-10-14T08:09:53.825Z,2289
2022-10-14T08:10:53.734Z,2760
2022-10-14T08:11:53.840Z,2739
2022-10-14T08:13:53.995Z,2739
2022-10-14T08:14:53.852Z,2837
2022-10-14T08:15:53.833Z,2394
2022-10-14T08:16:53.820Z,2408
2022-10-14T08:18:54.003Z,2394
2022-10-14T08:19:53.702Z,2643
2022-10-14T08:20:53.839Z,2645
2022-10-14T08:21:53.832Z,2674
2022-10-14T08:23:54.031Z,2506
2022-10-14T08:24:53.816Z,2434
2022-10-14T08:25:53.731Z,2563
2022-10-14T08:26:53.736Z,2471
2022-10-14T08:28:54.050Z,2511
2022-10-14T08:29:53.734Z,2471
2022-10-14T08:30:53.717Z,2489
2022-10-14T08:31:54.740Z,2058
2022-10-14T08:33:54.016Z,2186
2022-10-14T08:34:53.864Z,2440
2022-10-14T08:35:54.081Z,2399
2022-10-14T08:36:53.743Z,2006
2022-10-14T08:38:54.023Z,2365
2022-10-14T08:39:53.746Z,2224
2022-10-14T08:40:54.985Z,2382
2022-10-14T08:41:53.735Z,2035
2022-10-14T08:43:54.010Z,2017
2022-10-14T08:44:53.754Z,2399
2022-10-14T08:45:53.754Z,2386
2022-10-14T08:46:53.751Z,2416
2022-10-14T08:48:54.015Z,2357
2022-10-14T08:49:53.760Z,1764
2022-10-14T08:50:53.794Z,2463
2022-10-14T08:51:53.752Z,2386
2022-10-14T08:53:54.016Z,2357
2022-10-14T08:54:53.752Z,2003
2022-10-14T08:55:53.760Z,2330
2022-10-14T08:56:53.771Z,2349
2022-10-14T08:58:54.048Z,1985
2022-10-14T08:59:53.761Z,2070
2022-10-14T09:00:53.761Z,1873
2022-10-14T09:01:53.751Z,1895
2022-10-14T09:03:54.059Z,2269
2022-10-14T09:04:53.753Z,1661
2022-10-14T09:05:53.722Z,1835
2022-10-14T09:06:53.747Z,2102
2022-10-14T09:08:54.029Z,2041
2022-10-14T09:09:53.726Z,2189
2022-10-14T09:10:53.749Z,1975
2022-10-14T09:11:53.752Z,2160
2022-10-14T09:13:54.034Z,1822
2022-10-14T09:14:53.749Z,1738
2022-10-14T09:15:53.747Z,1942
2022-10-14T09:16:54.362Z,1905
2022-10-14T09:18:54.728Z,1633
2022-10-14T09:19:53.743Z,1860
2022-10-14T09:20:53.858Z,1879
2022-10-14T09:21:53.886Z,1863
2022-10-14T09:23:54.071Z,1851
2022-10-14T09:24:53.758Z,1608
2022-10-14T09:25:53.857Z,1841
2022-10-14T09:26:53.845Z,1806
2022-10-14T09:28:54.101Z,1789
2022-10-14T09:29:53.765Z,1800
2022-10-14T09:30:53.759Z,1795
2022-10-14T09:31:53.759Z,1531
2022-10-14T09:33:54.038Z,1604
2022-10-14T09:34:53.737Z,1725
2022-10-14T09:35:53.899Z,1460
2022-10-14T09:36:53.832Z,1445
2022-10-14T09:38:54.036Z,1680
2022-10-14T09:39:53.868Z,1652
2022-10-14T09:40:53.747Z,1518
2022-10-14T09:41:53.769Z,1652
2022-10-14T09:43:54.042Z,1575
2022-10-14T09:44:53.904Z,1536
2022-10-14T09:45:53.867Z,1545
2022-10-14T09:46:53.740Z,1308
2022-10-14T09:48:54.066Z,1314
2022-10-14T09:49:53.915Z,1528
2022-10-14T09:50:53.902Z,1377
2022-10-14T09:51:53.886Z,1407
2022-10-14T09:53:54.060Z,1506
2022-10-14T09:54:53.870Z,1291
2022-10-14T09:55:53.776Z,1498
2022-10-14T09:56:53.875Z,1396
2022-10-14T09:58:54.058Z,1346
2022-10-14T09:59:53.799Z,1432
2022-10-14T10:00:53.763Z,1486
2022-10-14T10:01:53.886Z,1443
2022-10-14T10:03:54.145Z,1457
2022-10-14T10:04:53.791Z,1475
2022-10-14T10:05:53.799Z,1353
2022-10-14T10:06:53.812Z,1443
2022-10-14T10:08:54.047Z,1153
2022-10-14T10:09:53.822Z,1358
2022-10-14T10:10:53.778Z,1163
2022-10-14T10:11:53.764Z,1365
2022-10-14T10:13:54.087Z,1101
2022-10-14T10:14:53.894Z,1112
2022-10-14T10:15:53.783Z,1269
2022-10-14T10:16:53.771Z,1305
2022-10-14T10:18:54.072Z,1323
2022-10-14T10:19:53.893Z,1362
2022-10-14T10:20:53.789Z,1120
2022-10-14T10:21:53.890Z,1169
2022-10-14T10:23:54.063Z,1110
2022-10-14T10:24:53.923Z,1369
2022-10-14T10:25:53.898Z,1353
2022-10-14T10:26:53.857Z,1332
2022-10-14T10:28:54.150Z,1161
2022-10-14T10:29:53.808Z,1281
2022-10-14T10:30:53.792Z,1303
2022-10-14T10:31:53.808Z,1264
2022-10-14T10:33:54.070Z,1256
2022-10-14T10:34:53.778Z,1232
2022-10-14T10:35:53.806Z,985
2022-10-14T10:36:53.793Z,1210
2022-10-14T10:38:54.086Z,960
2022-10-14T10:39:53.803Z,924
2022-10-14T10:40:53.808Z,896
2022-10-14T10:41:53.921Z,873
2022-10-14T10:43:54.101Z,1054
2022-10-14T10:44:53.837Z,1065
2022-10-14T10:45:53.801Z,890
2022-10-14T10:46:54.007Z,1050
2022-10-14T10:48:54.095Z,831
2022-10-14T10:49:53.889Z,795
2022-10-14T10:50:53.825Z,954
2022-10-14T10:51:53.831Z,779
2022-10-14T10:53:54.098Z,1006
2022-10-14T10:54:53.826Z,827
2022-10-14T10:55:53.955Z,820
2022-10-14T10:56:53.806Z,974
2022-10-14T10:58:54.103Z,816
2022-10-14T10:59:53.956Z,959
2022-10-14T11:00:53.931Z,939
2022-10-14T11:01:53.968Z,761
2022-10-14T11:03:54.101Z,801
2022-10-14T11:04:53.833Z,954
2022-10-14T11:05:53.913Z,801
2022-10-14T11:06:53.844Z,974
2022-10-14T11:08:54.159Z,996
2022-10-14T11:09:53.858Z,971
2022-10-14T11:10:53.843Z,811
2022-10-14T11:11:53.851Z,986
2022-10-14T11:13:54.161Z,811
2022-10-14T11:14:53.849Z,918
2022-10-14T11:15:53.856Z,733
2022-10-14T11:16:53.814Z,899
2022-10-14T11:18:54.115Z,896
2022-10-14T11:19:53.844Z,811
2022-10-14T11:20:53.831Z,944
2022-10-14T11:21:53.945Z,770
2022-10-14T11:23:54.145Z,964
2022-10-14T11:24:53.945Z,949
2022-10-14T11:25:53.850Z,927
2022-10-14T11:26:53.850Z,961
2022-10-14T11:28:54.160Z,791
2022-10-14T11:29:53.851Z,959
2022-10-14T11:30:53.856Z,949
2022-10-14T11:31:53.811Z,915
2022-10-14T11:33:54.113Z,731
2022-10-14T11:34:53.825Z,844
2022-10-14T11:35:53.822Z,862
2022-10-14T11:36:53.966Z,730
2022-10-14T11:38:54.132Z,905
2022-10-14T11:39:53.827Z,905
2022-10-14T11:40:53.818Z,891
2022-10-14T11:41:53.959Z,767
2022-10-14T11:43:54.101Z,945
2022-10-14T11:44:53.834Z,842
2022-10-14T11:45:53.831Z,844
2022-10-14T11:46:53.845Z,853
2022-10-14T11:48:54.126Z,878
2022-10-14T11:49:53.924Z,779
2022-10-14T11:50:53.922Z,665
2022-10-14T11:51:53.812Z,779
2022-10-14T11:53:54.132Z,831
2022-10-14T11:54:53.821Z,699
2022-10-14T11:55:53.944Z,881
2022-10-14T11:56:53.851Z,750
2022-10-14T11:58:54.113Z,779
2022-10-14T11:59:53.848Z,745
2022-10-14T12:00:53.967Z,886
2022-10-14T12:01:53.835Z,910
2022-10-14T12:03:54.114Z,986
2022-10-14T12:04:53.824Z,971
2022-10-14T12:05:53.840Z,960
2022-10-14T12:06:53.833Z,1045
2022-10-14T12:08:54.118Z,1110
2022-10-14T12:09:55.779Z,1143
2022-10-14T12:10:53.837Z,1151
2022-10-14T12:11:53.841Z,1153
2022-10-14T12:13:54.128Z,929
2022-10-14T12:14:53.845Z,1114
2022-10-14T12:15:53.846Z,1159
2022-10-14T12:16:53.825Z,1314
2022-10-14T12:18:54.149Z,1478
2022-10-14T12:19:53.853Z,1267
2022-10-14T12:20:53.867Z,1241
2022-10-14T12:21:53.824Z,1542
2022-10-14T12:23:54.129Z,1241
2022-10-14T12:24:53.866Z,1283
2022-10-14T12:25:53.868Z,1318
2022-10-14T12:26:53.867Z,1258
2022-10-14T12:28:54.467Z,1310
2022-10-14T12:29:53.871Z,1618
2022-10-14T12:30:53.957Z,1480
2022-10-14T12:31:53.970Z,1305
2022-10-14T12:33:54.161Z,1585
2022-10-14T12:34:53.880Z,1232
2022-10-14T12:35:53.880Z,1187
2022-10-14T12:36:53.846Z,1455
2022-10-14T12:38:54.136Z,1153
2022-10-14T12:39:53.963Z,1305
2022-10-14T12:40:53.967Z,1276
2022-10-14T12:41:53.845Z,1256
2022-10-14T12:43:54.148Z,1013
2022-10-14T12:44:53.965Z,1133
2022-10-14T12:45:53.999Z,812
2022-10-14T12:46:53.975Z,997
2022-10-14T12:48:54.152Z,1114
2022-10-14T12:49:53.853Z,1159
2022-10-14T12:50:53.850Z,1033
2022-10-14T12:51:53.854Z,1280
2022-10-14T12:53:54.158Z,1353
2022-10-14T12:54:53.862Z,949
2022-10-14T12:55:53.889Z,865
2022-10-14T12:56:53.980Z,1078
2022-10-14T12:58:54.142Z,1161
2022-10-14T12:59:53.977Z,1187
2022-10-14T13:00:53.991Z,1239
2022-10-14T13:01:53.962Z,885
2022-10-14T13:03:54.193Z,1169
2022-10-14T13:04:53.970Z,1239
2022-10-14T13:05:53.982Z,1217
2022-10-14T13:06:53.884Z,1208
2022-10-14T13:08:54.153Z,1176
2022-10-14T13:09:53.893Z,1211
2022-10-14T13:10:53.897Z,959
2022-10-14T13:11:53.862Z,1135
2022-10-14T13:13:54.186Z,1094
2022-10-14T13:14:53.891Z,1187
2022-10-14T13:15:53.894Z,825
2022-10-14T13:16:53.887Z,1008
2022-10-14T13:18:54.206Z,908
2022-10-14T13:19:53.872Z,985
2022-10-14T13:20:53.983Z,828
2022-10-14T13:21:53.893Z,970
2022-10-14T13:23:54.157Z,925
2022-10-14T13:24:53.872Z,692
2022-10-14T13:25:53.881Z,673
2022-10-14T13:26:53.879Z,810
2022-10-14T13:28:54.196Z,746
2022-10-14T13:29:53.875Z,726
2022-10-14T13:30:53.983Z,854
2022-10-14T13:31:54.030Z,819
2022-10-14T13:33:54.196Z,862
2022-10-14T13:34:53.911Z,646
2022-10-14T13:35:53.898Z,638
2022-10-14T13:36:53.905Z,766
2022-10-14T13:38:54.206Z,647
2022-10-14T13:39:54.003Z,807
2022-10-14T13:40:54.014Z,805
2022-10-14T13:41:54.007Z,668
2022-10-14T13:43:54.183Z,778
2022-10-14T13:44:53.893Z,632
2022-10-14T13:45:53.882Z,736
2022-10-14T13:46:53.901Z,735
2022-10-14T13:48:54.209Z,603
2022-10-14T13:49:54.021Z,631
2022-10-14T13:50:56.038Z,611
2022-10-14T13:51:53.916Z,606
2022-10-14T13:53:54.178Z,578
2022-10-14T13:54:53.893Z,555
2022-10-14T13:55:54.403Z,478
2022-10-14T13:57:01.758Z,566
2022-10-14T13:58:54.189Z,548
2022-10-14T14:00:38.367Z,560
2022-10-14T14:00:53.930Z,551
2022-10-14T14:01:53.960Z,470
2022-10-14T14:03:54.191Z,472
2022-10-14T14:04:53.925Z,518
2022-10-14T14:05:53.920Z,434
2022-10-14T14:07:07.140Z,463
2022-10-14T14:08:54.214Z,526
2022-10-14T14:09:53.920Z,443
2022-10-14T14:11:14.806Z,528
2022-10-14T14:11:53.922Z,400
2022-10-14T14:13:59.183Z,495
2022-10-14T14:14:53.917Z,452
2022-10-14T14:15:54.046Z,542
2022-10-14T14:16:54.030Z,443
2022-10-14T14:19:03.741Z,549
2022-10-14T14:19:53.929Z,578
2022-10-14T14:20:53.940Z,579
2022-10-14T14:21:53.919Z,556
2022-10-14T14:23:54.227Z,571
2022-10-14T14:24:54.035Z,463
2022-10-14T14:26:17.581Z,564
2022-10-14T14:26:53.932Z,564
2022-10-14T14:28:54.230Z,459
2022-10-14T14:29:53.907Z,594
2022-10-14T14:30:55.049Z,594
2022-10-14T14:32:05.902Z,594
2022-10-14T14:33:54.210Z,454
2022-10-14T14:35:54.022Z,461
2022-10-14T14:36:58.008Z,545
2022-10-14T14:38:54.234Z,528
2022-10-14T14:39:53.937Z,565
2022-10-14T14:40:53.942Z,540
2022-10-14T14:41:53.939Z,491
2022-10-14T14:44:07.513Z,456
2022-10-14T14:44:53.940Z,480
2022-10-14T14:45:53.949Z,543
2022-10-14T14:46:53.938Z,536
2022-10-14T14:48:54.436Z,480
2022-10-14T14:50:01.522Z,572
2022-10-14T14:50:54.070Z,550
2022-10-14T14:51:54.049Z,541
2022-10-14T14:53:54.233Z,540
2022-10-14T14:54:53.931Z,565
2022-10-14T14:55:54.072Z,565
2022-10-14T14:56:53.928Z,565
2022-10-14T14:58:54.221Z,565
2022-10-14T14:59:53.921Z,602
2022-10-14T15:00:54.049Z,602
2022-10-14T15:01:54.001Z,602
2022-10-14T15:04:11.726Z,602
2022-10-14T15:04:53.924Z,614
2022-10-14T15:05:54.083Z,614
2022-10-14T15:06:53.938Z,614
2022-10-14T15:08:54.226Z,614
2022-10-14T15:09:53.962Z,606
2022-10-14T15:10:53.953Z,606
2022-10-14T15:11:53.958Z,606
2022-10-14T15:13:54.286Z,606
2022-10-14T15:14:53.961Z,628
2022-10-14T15:15:54.053Z,628
2022-10-14T15:16:53.959Z,628
2022-10-14T15:18:54.226Z,628
2022-10-14T15:19:53.950Z,623
2022-10-14T15:20:54.070Z,623
2022-10-14T15:21:54.047Z,623
2022-10-14T15:23:54.258Z,623
2022-10-14T15:24:53.967Z,650
2022-10-14T15:25:53.963Z,650
2022-10-14T15:26:53.944Z,650
2022-10-14T15:28:54.315Z,650
2022-10-14T15:29:53.944Z,675
2022-10-14T15:30:53.943Z,675
2022-10-14T15:31:54.072Z,675
2022-10-14T15:33:54.239Z,675
2022-10-14T15:34:53.942Z,695
2022-10-14T15:35:54.074Z,695
2022-10-14T15:36:54.096Z,695
2022-10-14T15:38:54.272Z,695
2022-10-14T15:39:53.980Z,709
2022-10-14T15:40:53.948Z,709
2022-10-14T15:41:53.974Z,709
2022-10-14T15:43:54.245Z,709
2022-10-14T15:44:53.973Z,699
2022-10-14T15:45:54.075Z,699
2022-10-14T15:46:53.983Z,699
2022-10-14T15:48:54.246Z,699
2022-10-14T15:49:53.975Z,730
2022-10-14T15:50:53.974Z,730
2022-10-14T15:51:54.072Z,730
2022-10-14T15:53:54.284Z,730
2022-10-14T15:54:54.078Z,730
2022-10-14T15:55:54.095Z,730
2022-10-14T15:56:53.985Z,730
2022-10-14T15:58:54.284Z,730
2022-10-14T15:59:54.116Z,758
2022-10-14T16:00:53.956Z,758
2022-10-14T16:01:54.040Z,758
2022-10-14T16:03:54.285Z,758
2022-10-14T16:05:14.939Z,788
2022-10-14T16:05:54.113Z,788
2022-10-14T16:06:53.988Z,788
2022-10-14T16:08:54.281Z,788
2022-10-14T16:09:54.085Z,780
2022-10-14T16:10:53.983Z,780
2022-10-14T16:11:53.982Z,780
2022-10-14T16:13:54.284Z,780
2022-10-14T16:14:54.139Z,821
2022-10-14T16:15:54.089Z,819
2022-10-14T16:16:54.087Z,819
2022-10-14T16:18:54.261Z,819
2022-10-14T16:19:53.983Z,857
2022-10-14T16:20:53.976Z,878
2022-10-14T16:21:53.996Z,813
2022-10-14T16:23:54.300Z,847
2022-10-14T16:24:53.968Z,813
2022-10-14T16:25:53.994Z,887
2022-10-14T16:26:54.102Z,923
2022-10-14T16:28:54.315Z,814
2022-10-14T16:29:53.971Z,825
2022-10-14T16:30:54.003Z,957
2022-10-14T16:31:53.977Z,975
2022-10-14T16:33:54.288Z,871
2022-10-14T16:34:53.972Z,1027
2022-10-14T16:35:54.086Z,902
2022-10-14T16:36:54.008Z,902
2022-10-14T16:38:54.267Z,923
2022-10-14T16:39:54.094Z,1076
2022-10-14T16:40:53.991Z,1104
2022-10-14T16:41:54.007Z,956
2022-10-14T16:43:54.276Z,975
2022-10-14T16:44:54.010Z,925
2022-10-14T16:45:54.003Z,1019
2022-10-14T16:46:53.988Z,1013
2022-10-14T16:48:54.276Z,1199
2022-10-14T16:49:54.110Z,1129